createdAt,value
2023-03-29T00:01:00.859Z,4.50
2023-03-29T00:06:03.662Z,5.65
2023-03-29T00:11:06.179Z,5.40
2023-03-29T00:16:08.919Z,5.70
2023-03-29T00:21:11.628Z,5.50
2023-03-29T00:26:13.811Z,8.98
2023-03-29T00:31:17.553Z,8.88
2023-03-29T00:36:19.974Z,5.80
2023-03-29T00:41:22.729Z,6.70
2023-03-29T00:46:26.543Z,6.30
2023-03-29T00:51:36.156Z,7.70
2023-03-29T00:56:41.632Z,6.47
2023-03-29T01:01:50.575Z,5.10
2023-03-29T01:07:00.626Z,6.10
2023-03-29T01:12:09.587Z,8.40
2023-03-29T01:17:12.947Z,9.57
2023-03-29T01:22:28.430Z,7.37
2023-03-29T01:27:43.988Z,10.63
2023-03-29T01:32:59.287Z,6.45
2023-03-29T01:38:35.860Z,7.90
2023-03-29T01:43:37.988Z,6.55
2023-03-29T01:49:12.538Z,6.60
2023-03-29T01:54:24.229Z,9.00
2023-03-29T01:59:32.377Z,5.80
2023-03-29T02:04:39.625Z,6.43
2023-03-29T02:09:42.779Z,6.90
2023-03-29T02:14:45.160Z,8.15
2023-03-29T02:19:52.202Z,7.00
2023-03-29T02:24:59.355Z,9.40
2023-03-29T02:30:01.930Z,6.93
2023-03-29T02:35:15.985Z,6.20
2023-03-29T02:40:20.980Z,7.28
2023-03-29T02:45:25.364Z,6.57
2023-03-29T02:50:30.767Z,6.97
2023-03-29T02:55:34.978Z,7.68
2023-03-29T03:00:40.930Z,7.35
2023-03-29T03:05:43.601Z,8.90
2023-03-29T03:10:45.937Z,9.17
2023-03-29T03:15:49.357Z,8.68
2023-03-29T03:20:56.865Z,7.62
2023-03-29T03:25:59.235Z,7.32
2023-03-29T03:31:01.760Z,8.40
2023-03-29T03:36:06.251Z,9.03
2023-03-29T03:41:09.114Z,8.40
2023-03-29T03:46:11.361Z,8.18
2023-03-29T03:51:14.183Z,7.53
2023-03-29T03:56:16.466Z,9.48
2023-03-29T04:01:19.754Z,8.93
2023-03-29T04:06:22.677Z,7.95
2023-03-29T04:11:25.736Z,10.70
2023-03-29T04:16:28.626Z,8.82
2023-03-29T04:21:30.948Z,9.07
2023-03-29T04:26:34.385Z,8.83
2023-03-29T04:31:36.757Z,10.27
2023-03-29T04:36:39.195Z,8.45
2023-03-29T04:41:41.688Z,10.93
2023-03-29T04:46:43.934Z,10.35
2023-03-29T04:51:47.838Z,9.90
2023-03-29T04:56:52.254Z,10.40
2023-03-29T05:01:54.771Z,11.65
2023-03-29T05:06:57.495Z,11.88
2023-03-29T05:11:59.706Z,11.15
2023-03-29T05:17:01.904Z,12.87
2023-03-29T05:22:04.195Z,10.00
2023-03-29T05:27:06.469Z,14.27
2023-03-29T05:32:08.855Z,11.90
2023-03-29T05:37:11.147Z,9.95
2023-03-29T05:42:15.669Z,9.07
2023-03-29T05:47:17.924Z,10.07
2023-03-29T05:52:20.311Z,10.77
2023-03-29T05:57:23.266Z,8.82
2023-03-29T06:02:26.124Z,8.77
2023-03-29T06:07:28.365Z,8.67
2023-03-29T06:12:31.072Z,9.45
2023-03-29T06:17:33.947Z,11.65
2023-03-29T06:22:36.649Z,9.27
2023-03-29T06:27:38.785Z,9.40
2023-03-29T06:32:42.073Z,8.23
2023-03-29T06:37:50.074Z,8.57
2023-03-29T06:42:59.602Z,9.27
2023-03-29T06:48:03.311Z,9.27
2023-03-29T06:53:05.574Z,8.95
2023-03-29T06:58:09.285Z,10.90
2023-03-29T07:03:14.858Z,12.57
2023-03-29T07:08:17.250Z,11.40
2023-03-29T07:13:19.535Z,10.02
2023-03-29T07:18:21.903Z,9.60
2023-03-29T07:23:24.259Z,9.93
2023-03-29T07:28:26.400Z,8.32
2023-03-29T07:33:28.629Z,8.25
2023-03-29T07:38:32.493Z,7.87
2023-03-29T07:43:35.336Z,7.75
2023-03-29T07:48:37.499Z,7.80
2023-03-29T07:53:40.013Z,7.00
2023-03-29T07:58:42.258Z,6.60
2023-03-29T08:03:45.840Z,7.90
2023-03-29T08:08:48.165Z,8.25
2023-03-29T08:13:51.683Z,7.93
2023-03-29T08:18:53.974Z,7.45
2023-03-29T08:23:56.167Z,6.40
2023-03-29T08:28:58.367Z,6.75
2023-03-29T08:34:00.838Z,7.18
2023-03-29T08:39:03.525Z,5.17
2023-03-29T08:44:33.102Z,6.07
2023-03-29T08:49:38.110Z,6.32
2023-03-29T08:54:45.157Z,9.30
2023-03-29T08:59:54.187Z,7.22
2023-03-29T09:05:29.652Z,7.00
2023-03-29T09:10:43.802Z,6.90
2023-03-29T09:16:06.215Z,7.87
2023-03-29T09:21:08.483Z,7.93
2023-03-29T09:26:41.853Z,7.20
2023-03-29T09:31:44.913Z,7.27
2023-03-29T09:36:58.830Z,7.55
2023-03-29T09:42:05.556Z,6.87
2023-03-29T09:47:19.322Z,8.73
2023-03-29T09:52:21.703Z,8.13
2023-03-29T09:57:24.035Z,6.67
2023-03-29T10:02:31.616Z,8.05
2023-03-29T10:07:44.618Z,7.43
2023-03-29T10:12:54.059Z,7.17
2023-03-29T10:18:06.987Z,8.80
2023-03-29T10:23:18.292Z,7.27
2023-03-29T10:28:22.832Z,8.25
2023-03-29T10:33:30.088Z,7.35
2023-03-29T10:38:35.646Z,6.93
2023-03-29T10:43:58.610Z,8.45
2023-03-29T10:49:10.343Z,8.43
2023-03-29T10:54:16.159Z,8.05
2023-03-29T10:59:29.410Z,7.80
2023-03-29T11:04:52.723Z,7.70
2023-03-29T11:10:21.458Z,8.57
2023-03-29T11:15:47.058Z,9.20
2023-03-29T11:21:31.045Z,8.02
2023-03-29T11:26:54.217Z,7.62
2023-03-29T11:32:25.461Z,9.60
2023-03-29T11:38:05.733Z,10.23
2023-03-29T11:43:43.174Z,9.73
2023-03-29T11:48:53.080Z,9.18
2023-03-29T11:54:08.104Z,8.52
2023-03-29T11:59:25.522Z,9.20
2023-03-29T12:04:34.216Z,7.82
2023-03-29T12:09:36.663Z,8.97
2023-03-29T12:14:57.120Z,8.38
2023-03-29T12:20:15.258Z,9.32
2023-03-29T12:25:23.531Z,8.20
2023-03-29T12:31:03.994Z,7.82
2023-03-29T12:36:52.011Z,7.33
2023-03-29T12:42:04.696Z,7.70
2023-03-29T12:47:12.990Z,8.15
2023-03-29T12:52:27.145Z,6.70
2023-03-29T12:57:44.365Z,7.57
2023-03-29T13:03:19.977Z,7.90
2023-03-29T13:08:34.047Z,7.57
2023-03-29T13:13:38.222Z,7.18
2023-03-29T13:19:11.979Z,8.80
2023-03-29T13:24:16.840Z,7.95
2023-03-29T13:29:48.105Z,8.63
2023-03-29T13:35:01.936Z,8.05
2023-03-29T13:40:27.089Z,9.18
2023-03-29T13:45:32.543Z,9.90
2023-03-29T13:50:53.768Z,8.45
2023-03-29T13:55:58.566Z,11.10
2023-03-29T14:01:27.094Z,8.30
2023-03-29T14:06:36.712Z,7.18
2023-03-29T14:11:44.354Z,8.93
2023-03-29T14:16:46.856Z,7.55
2023-03-29T14:21:51.383Z,8.33
2023-03-29T14:26:55.423Z,9.07
2023-03-29T14:32:09.678Z,7.68
2023-03-29T14:37:15.810Z,9.43
2023-03-29T14:42:23.595Z,9.60
2023-03-29T14:47:30.970Z,8.60
2023-03-29T14:52:34.501Z,8.98
2023-03-29T14:57:37.933Z,7.35
2023-03-29T15:02:49.753Z,12.55
2023-03-29T15:07:56.042Z,8.07
2023-03-29T15:13:02.172Z,9.47
2023-03-29T15:18:07.498Z,10.98
2023-03-29T15:23:15.935Z,9.52
2023-03-29T15:28:55.558Z,8.32
2023-03-29T15:34:09.419Z,11.10
2023-03-29T15:39:17.151Z,11.17
2023-03-29T15:44:32.905Z,9.23
2023-03-29T15:49:35.105Z,8.38
2023-03-29T15:54:38.991Z,8.50
2023-03-29T15:59:42.068Z,8.77
2023-03-29T16:04:44.366Z,10.40
2023-03-29T16:09:47.227Z,8.90
2023-03-29T16:14:49.518Z,9.48
2023-03-29T16:19:51.809Z,8.98
2023-03-29T16:24:55.016Z,11.05
2023-03-29T16:29:58.877Z,9.90
2023-03-29T16:35:01.073Z,9.82
2023-03-29T16:40:07.322Z,9.23
2023-03-29T16:45:13.288Z,11.23
2023-03-29T16:50:18.961Z,8.90
2023-03-29T16:55:21.339Z,8.73
2023-03-29T17:00:24.029Z,9.55
2023-03-29T17:05:26.429Z,8.18
2023-03-29T17:10:28.624Z,10.70
2023-03-29T17:15:30.863Z,11.12
2023-03-29T17:20:33.107Z,10.33
2023-03-29T17:25:35.576Z,9.10
2023-03-29T17:30:38.073Z,9.23
2023-03-29T17:35:44.451Z,9.23
2023-03-29T17:40:55.340Z,9.60
2023-03-29T17:45:57.526Z,9.50
2023-03-29T17:50:59.867Z,7.20
2023-03-29T17:56:02.370Z,7.55
2023-03-29T18:01:09.357Z,4.65
2023-03-29T18:06:12.283Z,4.95
2023-03-29T18:11:22.645Z,5.90
2023-03-29T18:16:25.093Z,5.95
2023-03-29T18:21:30.309Z,6.18
2023-03-29T18:26:35.210Z,5.07
2023-03-29T18:31:37.458Z,7.75
2023-03-29T18:36:39.761Z,5.40
2023-03-29T18:41:42.089Z,6.45
2023-03-29T18:46:44.392Z,6.15
2023-03-29T18:51:49.686Z,6.40
2023-03-29T18:56:52.483Z,6.28
2023-03-29T19:01:54.980Z,7.40
2023-03-29T19:06:57.350Z,6.95
2023-03-29T19:11:59.746Z,7.32
2023-03-29T19:17:01.915Z,7.05
2023-03-29T19:22:04.247Z,7.03
2023-03-29T19:27:06.647Z,7.47
2023-03-29T19:32:09.016Z,6.32
2023-03-29T19:37:11.208Z,8.05
2023-03-29T19:42:13.496Z,7.10
2023-03-29T19:47:15.769Z,8.23
2023-03-29T19:52:17.957Z,7.47
2023-03-29T19:57:20.604Z,7.12
2023-03-29T20:02:23.526Z,7.80
2023-03-29T20:07:25.847Z,6.87
2023-03-29T20:12:28.036Z,7.30
2023-03-29T20:17:30.344Z,8.70
2023-03-29T20:22:32.821Z,6.95
2023-03-29T20:27:35.748Z,7.12
2023-03-29T20:32:38.439Z,7.87
2023-03-29T20:37:40.837Z,7.15
2023-03-29T20:42:46.244Z,7.53
2023-03-29T20:47:57.699Z,6.70
2023-03-29T20:53:03.870Z,7.10
2023-03-29T20:58:07.848Z,6.50
2023-03-29T21:03:10.126Z,7.85
2023-03-29T21:08:12.424Z,8.83
2023-03-29T21:13:14.586Z,7.37
2023-03-29T21:18:16.805Z,7.37
2023-03-29T21:23:19.026Z,8.40
2023-03-29T21:28:21.615Z,9.40
2023-03-29T21:33:23.839Z,9.30
2023-03-29T21:38:26.624Z,9.85
2023-03-29T21:43:29.197Z,10.63
2023-03-29T21:48:31.814Z,10.55
2023-03-29T21:53:34.592Z,11.95
2023-03-29T21:58:38.569Z,11.67
2023-03-29T22:03:40.752Z,15.95
2023-03-29T22:08:42.877Z,16.10
2023-03-29T22:13:47.039Z,11.48
2023-03-29T22:18:50.162Z,12.30
2023-03-29T22:23:55.026Z,14.40
2023-03-29T22:28:59.075Z,13.45
2023-03-29T22:34:02.817Z,14.23
2023-03-29T22:39:06.671Z,15.25
2023-03-29T22:44:10.470Z,13.02
2023-03-29T22:49:13.304Z,13.57
2023-03-29T22:54:16.720Z,14.75
2023-03-29T22:59:19.064Z,14.73
2023-03-29T23:04:21.453Z,12.57
2023-03-29T23:09:23.773Z,15.48
2023-03-29T23:14:26.010Z,14.87
2023-03-29T23:19:28.158Z,15.70
2023-03-29T23:24:30.474Z,13.88
2023-03-29T23:29:36.600Z,16.08
2023-03-29T23:34:39.602Z,18.98
2023-03-29T23:39:41.813Z,14.70
2023-03-29T23:44:44.071Z,16.70
2023-03-29T23:49:46.884Z,15.63
2023-03-29T23:54:50.474Z,15.85
2023-03-29T23:59:55.860Z,14.43
